Time;durP1;ratioP1;P1;durP2;ratioP2;P2;SDS_P1;SDS_P2;PMS_P1;PMS_P2;Temp;Humidity;BMP_temperature;BMP_pressure;BME280_temperature;BME280_humidity;BME280_pressure;Samples;Min_cycle;Max_cycle;Signal;HPM_P1;HPM_P2
2022/09/29 00:10:01;;;;;;;0.40;0.40;;;;;;;15.65;69.94;99059.62;18625647;31;20088;-56
2022/09/29 00:20:07;;;;;;;1.55;1.20;;;;;;;15.57;70.61;99064.34;18624385;31;20096;-56
2022/09/29 00:30:12;;;;;;;0.52;0.30;;;;;;;15.60;70.65;99080.00;18623706;31;20099;-56
2022/09/29 00:40:16;;;;;;;0.32;0.32;;;;;;;15.65;70.85;99061.38;18625297;31;20100;-56
2022/09/29 00:50:23;;;;;;;0.30;0.30;;;;;;;15.75;70.51;99051.31;18631453;31;20099;-56
2022/09/29 01:00:26;;;;;;;0.30;0.30;;;;;;;15.77;70.22;99052.91;18631268;31;20083;-56
2022/09/29 01:10:31;;;;;;;0.35;0.35;;;;;;;15.61;70.71;99049.28;18630929;31;20214;-56
2022/09/29 01:20:38;;;;;;;0.30;0.30;;;;;;;15.27;71.86;99030.59;18631400;31;20095;-56
2022/09/29 01:30:53;;;;;;;0.30;0.30;;;;;;;15.59;70.10;99030.94;18631211;31;20408;-56
2022/09/29 01:41:03;;;;;;;0.52;0.52;;;;;;;15.55;69.93;99031.97;18629792;31;20116;-56
2022/09/29 01:51:12;;;;;;;0.40;0.40;;;;;;;15.45;70.46;99034.19;18629600;31;20373;-56
2022/09/29 02:01:16;;;;;;;0.30;0.30;;;;;;;15.55;70.08;99031.97;18629357;31;20072;-56
2022/09/29 02:11:21;;;;;;;0.43;0.43;;;;;;;15.53;70.01;99025.94;18578677;31;20096;-56
2022/09/29 02:21:25;;;;;;;0.40;0.40;;;;;;;15.43;70.49;99007.12;18563426;31;20108;-56
2022/09/29 02:31:30;;;;;;;0.40;0.40;;;;;;;15.49;70.23;99008.63;18563276;31;20143;-56
2022/09/29 02:41:38;;;;;;;1.25;1.15;;;;;;;15.48;70.22;99009.53;18562993;31;20111;-56
2022/09/29 02:51:47;;;;;;;0.75;0.75;;;;;;;15.50;70.19;98999.78;18562561;31;20459;-56
2022/09/29 03:01:51;;;;;;;0.68;0.62;;;;;;;15.55;70.18;99018.84;18563422;31;20084;-56
2022/09/29 03:11:57;;;;;;;1.23;0.65;;;;;;;15.48;70.44;99030.56;18562091;31;20105;-56
2022/09/29 03:22:00;;;;;;;0.30;0.30;;;;;;;15.49;70.73;99029.66;18562881;32;20141;-56
2022/09/29 03:32:05;;;;;;;0.30;0.30;;;;;;;15.45;71.59;99049.09;18561494;31;20349;-56
2022/09/29 03:42:08;;;;;;;0.35;0.35;;;;;;;15.53;71.15;99049.63;18559356;32;20399;-56
2022/09/29 03:52:13;;;;;;;0.57;0.43;;;;;;;15.63;70.73;99042.19;18560260;31;20141;-56
2022/09/29 04:02:17;;;;;;;0.20;0.20;;;;;;;15.63;70.85;99045.66;18560093;31;20159;-56
2022/09/29 04:12:21;;;;;;;0.77;0.65;;;;;;;15.64;71.15;99031.56;18559663;31;20119;-56
2022/09/29 04:22:24;;;;;;;0.50;0.50;;;;;;;15.71;70.88;99015.53;18567597;31;20120;-56
2022/09/29 04:32:29;;;;;;;0.30;0.30;;;;;;;15.43;72.24;99011.50;18566737;31;20659;-56
2022/09/29 04:42:32;;;;;;;0.22;0.22;;;;;;;15.68;71.51;99003.34;18566490;31;20092;-56
2022/09/29 04:52:37;;;;;;;0.20;0.20;;;;;;;15.75;71.29;98998.69;18580987;31;20100;-56
2022/09/29 05:02:40;;;;;;;0.35;0.35;;;;;;;15.71;71.36;99019.03;18631242;31;20139;-56
2022/09/29 05:12:49;;;;;;;0.30;0.30;;;;;;;15.76;71.42;99024.06;18630649;31;20143;-56
2022/09/29 05:22:52;;;;;;;0.40;0.40;;;;;;;15.81;71.69;99020.31;18631570;31;20136;-56
2022/09/29 05:32:57;;;;;;;0.70;0.65;;;;;;;15.93;71.57;99025.94;18629908;31;20110;-56
2022/09/29 05:43:01;;;;;;;0.30;0.30;;;;;;;15.97;71.42;99034.56;18629983;31;20088;-56
2022/09/29 05:53:05;;;;;;;1.05;1.00;;;;;;;16.00;71.65;99023.88;18626618;31;20204;-56
2022/09/29 06:03:08;;;;;;;0.35;0.35;;;;;;;16.04;71.61;99033.34;18622951;31;20091;-56
2022/09/29 06:13:13;;;;;;;0.70;0.70;;;;;;;16.12;71.33;99039.09;18626559;31;20068;-56
2022/09/29 06:23:16;;;;;;;0.40;0.40;;;;;;;16.15;71.36;99043.34;18628562;31;20131;-56
2022/09/29 06:33:20;;;;;;;0.30;0.30;;;;;;;16.20;71.45;99052.75;18621303;31;20466;-56
2022/09/29 06:43:24;;;;;;;0.30;0.30;;;;;;;16.25;71.61;99059.59;18623782;31;20114;-56
2022/09/29 06:53:29;;;;;;;1.73;0.65;;;;;;;15.72;73.53;99061.94;18625890;31;20084;-56
2022/09/29 07:03:40;;;;;;;0.35;0.35;;;;;;;16.15;72.02;99065.28;18626328;31;20420;-56
2022/09/29 07:13:44;;;;;;;0.30;0.30;;;;;;;16.33;71.70;99083.78;18625402;31;20091;-56
2022/09/29 07:23:48;;;;;;;0.80;0.77;;;;;;;16.49;71.50;99091.81;18626058;31;20096;-56
2022/09/29 07:33:52;;;;;;;0.30;0.30;;;;;;;16.51;72.02;99100.47;18622793;31;20091;-56
2022/09/29 07:43:55;;;;;;;0.30;0.30;;;;;;;16.57;71.89;99105.47;18582615;31;20096;-56
2022/09/29 07:54:03;;;;;;;1.17;0.80;;;;;;;16.70;72.03;99107.50;18555843;32;20111;-56
2022/09/29 08:04:06;;;;;;;0.40;0.30;;;;;;;16.88;72.66;99109.25;18557772;31;20106;-56
2022/09/29 08:14:11;;;;;;;0.30;0.30;;;;;;;17.23;72.11;99121.62;18556592;31;20766;-56
2022/09/29 08:24:14;;;;;;;0.88;0.40;;;;;;;17.37;71.29;99133.28;18556002;32;20395;-56
2022/09/29 08:34:19;;;;;;;0.43;0.43;;;;;;;17.66;70.72;99131.75;18581208;31;20166;-56
2022/09/29 08:44:29;;;;;;;0.20;0.20;;;;;;;17.41;70.38;99162.06;18513611;31;20181;-56
2022/09/29 08:54:44;;;;;;;0.20;0.20;;;;;;;17.53;69.93;99168.47;18426442;32;20476;-56
2022/09/29 09:05:18;;;;;;;0.22;0.22;;;;;;;17.58;70.15;99169.09;18452796;32;20179;-56
2022/09/29 09:15:41;;;;;;;0.20;0.20;;;;;;;17.43;69.40;99178.66;18499723;32;20392;-56
2022/09/29 09:25:49;;;;;;;0.20;0.20;;;;;;;17.48;70.75;99176.63;18500100;32;20100;-56
2022/09/29 09:35:56;;;;;;;0.20;0.20;;;;;;;17.91;70.25;99169.22;18498989;32;20134;-56
2022/09/29 09:46:08;;;;;;;0.20;0.20;;;;;;;18.07;69.21;99179.84;18499539;32;20421;-56
2022/09/29 09:56:18;;;;;;;0.20;0.20;;;;;;;18.21;68.21;99197.59;18498212;32;20127;-56
2022/09/29 10:06:21;;;;;;;0.20;0.20;;;;;;;18.50;67.83;99201.31;18495975;32;20092;-56
2022/09/29 10:16:30;;;;;;;0.20;0.20;;;;;;;17.90;67.30;99194.78;18497825;32;20096;-56
2022/09/29 10:26:35;;;;;;;0.20;0.20;;;;;;;18.69;66.67;99190.59;18496103;32;20101;-56
2022/09/29 10:36:51;;;;;;;0.17;0.17;;;;;;;18.71;66.62;99179.94;18482318;32;20115;-56
2022/09/29 10:46:56;;;;;;;0.77;0.70;;;;;;;18.90;66.34;99192.13;18497495;32;20084;-56
2022/09/29 10:57:01;;;;;;;0.65;0.30;;;;;;;19.53;65.22;99177.09;18495816;32;20105;-56
2022/09/29 11:07:10;;;;;;;0.20;0.20;;;;;;;20.16;61.37;99174.25;18496454;32;20395;-57
2022/09/29 11:17:37;;;;;;;0.10;0.10;;;;;;;20.28;60.98;99205.28;18481596;32;20092;-56
2022/09/29 11:27:50;;;;;;;0.10;0.10;;;;;;;19.79;60.75;99207.31;18496343;32;20084;-56
2022/09/29 11:38:06;;;;;;;0.13;0.13;;;;;;;20.01;60.60;99198.09;18496087;32;20096;-56
2022/09/29 11:48:34;;;;;;;0.05;0.05;;;;;;;20.38;61.92;99195.81;18495559;32;20099;-56
2022/09/29 11:58:50;;;;;;;0.05;0.05;;;;;;;19.61;60.63;99205.75;18495111;32;20141;-56
2022/09/29 12:09:03;;;;;;;0.10;0.10;;;;;;;20.51;61.79;99210.97;18494618;32;20120;-56
2022/09/29 12:19:11;;;;;;;0.20;0.20;;;;;;;20.59;61.56;99214.00;18494246;32;20091;-56
2022/09/29 12:29:21;;;;;;;0.20;0.20;;;;;;;20.31;61.30;99223.66;18494290;32;20101;-57
2022/09/29 12:39:33;;;;;;;0.00;0.00;;;;;;;19.70;62.16;99236.97;18503941;32;20137;-57
2022/09/29 12:49:42;;;;;;;0.65;0.65;;;;;;;19.70;60.96;99234.31;18470440;32;20121;-57
2022/09/29 12:59:54;;;;;;;0.10;0.10;;;;;;;20.18;61.76;99234.16;18435879;32;20140;-57
2022/09/29 13:10:21;;;;;;;0.10;0.10;;;;;;;20.10;61.33;99242.56;18435038;32;20425;-57
2022/09/29 13:21:04;;;;;;;0.10;0.10;;;;;;;20.14;61.92;99242.38;18432434;32;20552;-57
2022/09/29 13:31:10;;;;;;;0.10;0.10;;;;;;;19.77;62.50;99254.19;18434319;32;20457;-57
2022/09/29 13:41:18;;;;;;;0.47;0.30;;;;;;;19.68;63.23;99244.16;18474070;32;20424;-58
2022/09/29 13:51:44;;;;;;;0.10;0.10;;;;;;;18.78;60.50;99250.03;18499263;32;20088;-57
2022/09/29 14:01:49;;;;;;;0.20;0.20;;;;;;;19.67;61.17;99245.94;18462800;32;20512;-57
2022/09/29 14:11:53;;;;;;;0.10;0.10;;;;;;;19.68;58.55;99268.84;18429903;32;20487;-57
2022/09/29 14:21:58;;;;;;;0.10;0.10;;;;;;;19.63;59.21;99283.25;18433849;32;20109;-57
2022/09/29 14:32:03;;;;;;;0.20;0.20;;;;;;;19.72;61.18;99282.72;18433036;32;20119;-57
2022/09/29 14:42:16;;;;;;;0.10;0.10;;;;;;;18.80;61.21;99285.16;18432328;32;20093;-57
2022/09/29 14:52:28;;;;;;;0.22;0.22;;;;;;;19.18;60.21;99302.53;18455796;32;20084;-57
2022/09/29 15:02:34;;;;;;;0.20;0.20;;;;;;;19.51;61.19;99313.97;18430439;32;20106;-57
2022/09/29 15:12:37;;;;;;;0.10;0.10;;;;;;;19.41;60.92;99327.72;18432166;32;20353;-57
2022/09/29 15:22:58;;;;;;;0.20;0.20;;;;;;;19.46;61.96;99327.47;18432827;32;20093;-57
2022/09/29 15:33:14;;;;;;;0.10;0.10;;;;;;;19.37;62.35;99323.50;18431936;32;20108;-57
2022/09/29 15:43:23;;;;;;;0.20;0.20;;;;;;;18.99;61.89;99326.47;18428822;32;80910;-57
2022/09/29 15:53:27;;;;;;;0.20;0.20;;;;;;;19.01;62.08;99324.63;18431085;32;20166;-58
2022/09/29 16:03:39;;;;;;;0.20;0.20;;;;;;;18.68;62.81;99328.13;18417357;32;20381;-57
2022/09/29 16:13:50;;;;;;;0.22;0.22;;;;;;;18.38;63.78;99348.13;18429109;32;20097;-57
2022/09/29 16:24:05;;;;;;;0.20;0.20;;;;;;;18.09;64.42;99345.19;18429325;32;20107;-57
2022/09/29 16:34:32;;;;;;;0.55;0.55;;;;;;;17.85;65.58;99371.88;18429962;32;20111;-57
2022/09/29 16:44:42;;;;;;;0.20;0.20;;;;;;;17.54;66.17;99396.25;18428028;32;20139;-57
2022/09/29 16:54:46;;;;;;;0.30;0.30;;;;;;;17.37;66.47;99394.41;18469665;32;20114;-57
2022/09/29 17:04:51;;;;;;;1.27;0.73;;;;;;;17.13;67.31;99389.31;18491415;32;20096;-57
2022/09/29 17:14:54;;;;;;;0.30;0.30;;;;;;;16.86;68.23;99374.66;18490838;32;20120;-57
2022/09/29 17:24:59;;;;;;;0.73;0.50;;;;;;;16.91;67.54;99369.19;18494805;32;20092;-57
2022/09/29 17:35:02;;;;;;;0.62;0.50;;;;;;;16.46;68.51;99389.59;18499748;32;20096;-56
2022/09/29 17:45:09;;;;;;;0.43;0.43;;;;;;;16.37;67.98;99412.75;18484994;32;20218;-57
2022/09/29 17:55:12;;;;;;;0.40;0.40;;;;;;;16.31;67.68;99409.50;18500170;32;20093;-56
2022/09/29 18:05:21;;;;;;;0.28;0.28;;;;;;;16.00;67.80;99406.37;18498891;32;20481;-56
2022/09/29 18:15:24;;;;;;;0.30;0.30;;;;;;;15.84;67.71;99419.28;18498485;32;20093;-57
2022/09/29 18:25:31;;;;;;;0.68;0.68;;;;;;;15.54;68.04;99432.69;18499342;32;20096;-57
2022/09/29 18:35:36;;;;;;;0.82;0.60;;;;;;;15.52;67.46;99437.16;18498399;32;20116;-57
2022/09/29 18:45:41;;;;;;;0.60;0.60;;;;;;;15.12;68.02;99445.63;18497868;32;20093;-56
2022/09/29 18:55:44;;;;;;;0.40;0.40;;;;;;;15.02;68.06;99456.50;18497499;32;20101;-57
2022/09/29 19:05:49;;;;;;;0.75;0.75;;;;;;;14.79;68.59;99477.44;18494064;32;20107;-56
2022/09/29 19:15:56;;;;;;;0.32;0.32;;;;;;;14.82;68.68;99508.00;18496856;32;20437;-57
2022/09/29 19:26:00;;;;;;;0.50;0.50;;;;;;;14.66;69.00;99531.28;18482394;32;20115;-57
2022/09/29 19:36:06;;;;;;;1.42;1.33;;;;;;;14.68;68.64;99521.56;18497137;32;20111;-56
2022/09/29 19:46:11;;;;;;;1.65;1.40;;;;;;;14.71;68.19;99516.22;18495831;32;20092;-56
2022/09/29 19:56:16;;;;;;;0.40;0.40;;;;;;;14.62;68.45;99537.53;18494354;32;20441;-57
2022/09/29 20:06:20;;;;;;;0.37;0.37;;;;;;;14.60;68.96;99541.97;18493174;32;20100;-57
2022/09/29 20:16:24;;;;;;;0.30;0.30;;;;;;;14.66;69.11;99541.78;18495560;32;20100;-56
2022/09/29 20:26:28;;;;;;;2.05;1.58;;;;;;;14.70;68.50;99539.00;18494096;32;20128;-57
2022/09/29 20:36:32;;;;;;;0.22;0.22;;;;;;;14.49;68.87;99543.19;18492747;32;20103;-56
2022/09/29 20:46:37;;;;;;;0.50;0.50;;;;;;;14.54;68.96;99559.66;18493566;32;20429;-56
2022/09/29 20:56:41;;;;;;;0.40;0.40;;;;;;;14.48;69.19;99577.38;18493194;32;20127;-57
2022/09/29 21:06:47;;;;;;;0.93;0.70;;;;;;;14.51;69.48;99588.66;18500594;32;20097;-57
2022/09/29 21:16:51;;;;;;;0.65;0.65;;;;;;;14.55;69.55;99589.37;18500128;32;20491;-57
2022/09/29 21:26:57;;;;;;;0.77;0.77;;;;;;;14.50;70.15;99599.19;18500241;32;20119;-57
2022/09/29 21:37:00;;;;;;;0.70;0.70;;;;;;;14.66;70.51;99625.84;18499872;32;20111;-57
2022/09/29 21:47:05;;;;;;;1.30;0.75;;;;;;;14.89;70.28;99642.66;18486569;32;20400;-57
2022/09/29 21:57:08;;;;;;;2.55;0.77;;;;;;;15.00;70.11;99656.31;18499308;32;20144;-57
2022/09/29 22:07:13;;;;;;;0.50;0.50;;;;;;;14.92;70.45;99681.97;18498061;32;20111;-56
2022/09/29 22:17:16;;;;;;;0.30;0.30;;;;;;;14.99;70.79;99646.72;18498789;32;20142;-56
2022/09/29 22:27:21;;;;;;;0.88;0.60;;;;;;;14.26;74.73;99610.41;18498694;32;20092;-56
2022/09/29 22:37:26;;;;;;;0.50;0.50;;;;;;;14.94;71.89;99612.72;18498352;32;20494;-64
2022/09/29 22:47:34;;;;;;;0.60;0.60;;;;;;;15.04;71.46;99612.41;18499020;32;20133;-57
2022/09/29 22:57:37;;;;;;;0.43;0.43;;;;;;;15.10;70.96;99615.69;18498545;32;20133;-56
2022/09/29 23:07:43;;;;;;;0.50;0.50;;;;;;;14.64;71.97;99619.78;18497367;32;20092;-56
2022/09/29 23:17:46;;;;;;;0.40;0.40;;;;;;;14.46;73.91;99624.69;18496931;32;20092;-58
2022/09/29 23:27:51;;;;;;;0.30;0.30;;;;;;;14.89;72.30;99642.66;18496699;32;20464;-56
2022/09/29 23:48:16;;;;;;;0.32;0.32;;;;;;;15.23;71.02;99702.00;18496124;32;20111;-56
2022/09/29 23:58:19;;;;;;;0.20;0.20;;;;;;;15.19;72.00;99713.56;18495733;32;20087;-56
